Philomene P. Perera — WDC3201 — position and weather

sailwx.info

Track history (hours):
 
Tides and Currents Weather Stations Pressure Air Temp Water Temp Dewpoint Dewpoint Depression Visibility Wind Speed Wind Dir Waves Ship Positions

Philomene P. Perera

Owner: Settoon Towing, L.L.C., Houma, LA. More information available from US FCC via Universal Licensing System and Coast Guard Vessel Documentation Center.

Last reported at 2018-Feb-24 13:38 UTC. Time now 2018-Feb-25 11:59 UTC.
Position N 29°33' W 090°55'.

Length 16 m; draft 5 m.

Type: Towing. MMSI: 367003820.

Date/timePositionNaut miles runAvg speedWind from/ knotsBaromVisibWave heightAir tempDewpointWater temp
2018-Feb-24 13:38N 29°33' W 090°55'3 5.9
2018-Feb-24 13:06N 29°32' W 090°51'1 6.0
2018-Feb-24 13:00N 29°32' W 090°51'3 5.9
2018-Feb-24 12:30N 29°32' W 090°47'2 4.7
2018-Feb-24 12:00N 29°33' W 090°45'2 4.2
2018-Feb-24 11:30N 29°35' W 090°43'0 0.3
2018-Feb-24 11:00N 29°35' W 090°43'0 0.0
2018-Feb-24 10:30N 29°35' W 090°43'0 0.0
2018-Feb-24 10:00N 29°35' W 090°43'0 0.0
2018-Feb-24 09:30N 29°35' W 090°43'1 1.3
2018-Feb-24 09:00N 29°35' W 090°43'2 3.3
2018-Feb-24 08:30N 29°36' W 090°41'3 6.0
2018-Feb-24 08:01N 29°35' W 090°38'3 5.8
2018-Feb-24 07:30N 29°35' W 090°35'3 5.9
2018-Feb-24 06:58N 29°34' W 090°31'2 0.2
2018-Feb-24 00:08N 29°34' W 090°30'1 7.2
2018-Feb-24 00:00N 29°34' W 090°31'3 7.1
2018-Feb-23 23:30N 29°34' W 090°35'3 6.2
2018-Feb-23 23:00N 29°35' W 090°38'4 7.1
2018-Feb-23 22:30N 29°37' W 090°42'2 4.4
2018-Feb-23 22:00N 29°35' W 090°43'0 0.2
2018-Feb-23 21:30N 29°35' W 090°43'0 0.0
2018-Feb-23 21:00N 29°35' W 090°43'0 0.1
2018-Feb-23 20:30N 29°35' W 090°43'3 6.3
2018-Feb-23 20:00N 29°33' W 090°46'4 7.1
2018-Feb-23 19:30N 29°32' W 090°50'  
2018-Feb-18 04:53N 29°33' W 090°55'3 5.9
2018-Feb-18 04:21N 29°32' W 090°51'2 5.9
2018-Feb-18 04:00N 29°32' W 090°49'3 5.8
2018-Feb-18 03:30N 29°32' W 090°46'2 4.8
2018-Feb-18 03:00N 29°34' W 090°44'1 2.2
2018-Feb-18 02:30N 29°33' W 090°42'3 5.9
2018-Feb-18 02:01N 29°30' W 090°43'3 6.0
2018-Feb-18 01:30N 29°27' W 090°43'5 0.4
2018-Feb-17 14:15N 29°23' W 090°44'2 6.1
2018-Feb-17 13:58N 29°24' W 090°44'3 6.9
2018-Feb-17 13:30N 29°28' W 090°43'4 7.0
2018-Feb-17 13:00N 29°31' W 090°42'2 4.9
2018-Feb-17 12:30N 29°34' W 090°43'0 0.0
2018-Feb-17 12:00N 29°34' W 090°43'0 0.0
2018-Feb-17 11:30N 29°34' W 090°43'0 0.0
2018-Feb-17 11:01N 29°34' W 090°43'0 0.0
2018-Feb-17 10:30N 29°34' W 090°43'0 0.0
2018-Feb-17 10:00N 29°34' W 090°43'0 0.0
2018-Feb-17 09:31N 29°34' W 090°43'0 0.0
2018-Feb-17 09:00N 29°34' W 090°43'0 0.0
2018-Feb-17 08:30N 29°34' W 090°43'0 0.0
2018-Feb-17 08:00N 29°34' W 090°43'0 0.0
2018-Feb-17 07:30N 29°34' W 090°43'0 0.0
2018-Feb-17 07:01N 29°34' W 090°43'0 0.0
2018-Feb-17 06:30N 29°34' W 090°43'0 0.0
2018-Feb-17 06:01N 29°34' W 090°43'0 0.0
2018-Feb-17 05:30N 29°34' W 090°43'1 1.9
2018-Feb-17 05:00N 29°34' W 090°43'0 1.0
2018-Feb-17 04:30N 29°35' W 090°43'1 2.4
2018-Feb-17 04:00N 29°36' W 090°43'1 2.1
2018-Feb-17 03:30N 29°37' W 090°42'2 3.8
2018-Feb-17 03:00N 29°36' W 090°40'3 5.1
2018-Feb-17 02:30N 29°35' W 090°37'3 5.5
2018-Feb-17 02:00N 29°34' W 090°34'3 6.0
2018-Feb-17 01:29N 29°34' W 090°31'  
2018-Feb-14 17:21N 29°34' W 090°29'3 7.3
2018-Feb-14 17:00N 29°34' W 090°32'4 7.0
2018-Feb-14 16:30N 29°35' W 090°36'3 6.9
2018-Feb-14 16:00N 29°36' W 090°40'2 4.9
2018-Feb-14 15:31N 29°36' W 090°43'1 1.9
2018-Feb-14 15:00N 29°35' W 090°43'3 6.9
2018-Feb-14 14:30N 29°32' W 090°46'4 8.0
2018-Feb-14 14:00N 29°32' W 090°50'  
Track history (hours):
 
Tides and Currents Weather Stations Pressure Air Temp Water Temp Dewpoint Dewpoint Depression Visibility Wind Speed Wind Dir Waves Ship Positions

Philomene P. Perera

Owner: Settoon Towing, L.L.C., Houma, LA. More information available from US FCC via Universal Licensing System and Coast Guard Vessel Documentation Center.

Last reported at 2018-Feb-24 13:38 UTC. Time now 2018-Feb-25 11:59 UTC.
Position N 29°33' W 090°55'.

Length 16 m; draft 5 m.

Type: Towing. MMSI: 367003820.

Date/timePositionNaut miles runAvg speedWind from/ knotsBaromVisibWave heightAir tempDewpointWater temp
2018-Feb-24 13:38N 29°33' W 090°55'3 5.9
2018-Feb-24 13:06N 29°32' W 090°51'1 6.0
2018-Feb-24 13:00N 29°32' W 090°51'3 5.9
2018-Feb-24 12:30N 29°32' W 090°47'2 4.7
2018-Feb-24 12:00N 29°33' W 090°45'2 4.2
2018-Feb-24 11:30N 29°35' W 090°43'0 0.3
2018-Feb-24 11:00N 29°35' W 090°43'0 0.0
2018-Feb-24 10:30N 29°35' W 090°43'0 0.0
2018-Feb-24 10:00N 29°35' W 090°43'0 0.0
2018-Feb-24 09:30N 29°35' W 090°43'1 1.3
2018-Feb-24 09:00N 29°35' W 090°43'2 3.3
2018-Feb-24 08:30N 29°36' W 090°41'3 6.0
2018-Feb-24 08:01N 29°35' W 090°38'3 5.8
2018-Feb-24 07:30N 29°35' W 090°35'3 5.9
2018-Feb-24 06:58N 29°34' W 090°31'2 0.2
2018-Feb-24 00:08N 29°34' W 090°30'1 7.2
2018-Feb-24 00:00N 29°34' W 090°31'3 7.1
2018-Feb-23 23:30N 29°34' W 090°35'3 6.2
2018-Feb-23 23:00N 29°35' W 090°38'4 7.1
2018-Feb-23 22:30N 29°37' W 090°42'2 4.4
2018-Feb-23 22:00N 29°35' W 090°43'0 0.2
2018-Feb-23 21:30N 29°35' W 090°43'0 0.0
2018-Feb-23 21:00N 29°35' W 090°43'0 0.1
2018-Feb-23 20:30N 29°35' W 090°43'3 6.3
2018-Feb-23 20:00N 29°33' W 090°46'4 7.1
2018-Feb-23 19:30N 29°32' W 090°50'  
2018-Feb-18 04:53N 29°33' W 090°55'3 5.9
2018-Feb-18 04:21N 29°32' W 090°51'2 5.9
2018-Feb-18 04:00N 29°32' W 090°49'3 5.8
2018-Feb-18 03:30N 29°32' W 090°46'2 4.8
2018-Feb-18 03:00N 29°34' W 090°44'1 2.2
2018-Feb-18 02:30N 29°33' W 090°42'3 5.9
2018-Feb-18 02:01N 29°30' W 090°43'3 6.0
2018-Feb-18 01:30N 29°27' W 090°43'5 0.4
2018-Feb-17 14:15N 29°23' W 090°44'2 6.1
2018-Feb-17 13:58N 29°24' W 090°44'3 6.9
2018-Feb-17 13:30N 29°28' W 090°43'4 7.0
2018-Feb-17 13:00N 29°31' W 090°42'2 4.9
2018-Feb-17 12:30N 29°34' W 090°43'0 0.0
2018-Feb-17 12:00N 29°34' W 090°43'0 0.0
2018-Feb-17 11:30N 29°34' W 090°43'0 0.0
2018-Feb-17 11:01N 29°34' W 090°43'0 0.0
2018-Feb-17 10:30N 29°34' W 090°43'0 0.0
2018-Feb-17 10:00N 29°34' W 090°43'0 0.0
2018-Feb-17 09:31N 29°34' W 090°43'0 0.0
2018-Feb-17 09:00N 29°34' W 090°43'0 0.0
2018-Feb-17 08:30N 29°34' W 090°43'0 0.0
2018-Feb-17 08:00N 29°34' W 090°43'0 0.0
2018-Feb-17 07:30N 29°34' W 090°43'0 0.0
2018-Feb-17 07:01N 29°34' W 090°43'0 0.0
2018-Feb-17 06:30N 29°34' W 090°43'0 0.0
2018-Feb-17 06:01N 29°34' W 090°43'0 0.0
2018-Feb-17 05:30N 29°34' W 090°43'1 1.9
2018-Feb-17 05:00N 29°34' W 090°43'0 1.0
2018-Feb-17 04:30N 29°35' W 090°43'1 2.4
2018-Feb-17 04:00N 29°36' W 090°43'1 2.1
2018-Feb-17 03:30N 29°37' W 090°42'2 3.8
2018-Feb-17 03:00N 29°36' W 090°40'3 5.1
2018-Feb-17 02:30N 29°35' W 090°37'3 5.5
2018-Feb-17 02:00N 29°34' W 090°34'3 6.0
2018-Feb-17 01:29N 29°34' W 090°31'  
2018-Feb-14 17:21N 29°34' W 090°29'3 7.3
2018-Feb-14 17:00N 29°34' W 090°32'4 7.0
2018-Feb-14 16:30N 29°35' W 090°36'3 6.9
2018-Feb-14 16:00N 29°36' W 090°40'2 4.9
2018-Feb-14 15:31N 29°36' W 090°43'1 1.9
2018-Feb-14 15:00N 29°35' W 090°43'3 6.9
2018-Feb-14 14:30N 29°32' W 090°46'4 8.0
2018-Feb-14 14:00N 29°32' W 090°50'  

Dump ship's entire track history